createdAt,value
2019-04-01T00:02:08.714Z,1.82
2019-04-01T00:04:35.501Z,1.60
2019-04-01T00:07:02.299Z,2.00
2019-04-01T00:09:29.069Z,2.00
2019-04-01T00:11:55.924Z,2.10
2019-04-01T00:14:22.719Z,1.55
2019-04-01T00:16:49.499Z,1.80
2019-04-01T00:19:16.295Z,2.08
2019-04-01T00:21:44.571Z,1.52
2019-04-01T00:24:11.658Z,1.92
2019-04-01T00:26:38.330Z,1.85
2019-04-01T00:29:05.125Z,2.02
2019-04-01T00:31:31.915Z,1.52
2019-04-01T00:33:58.693Z,1.60
2019-04-01T00:36:25.520Z,1.92
2019-04-01T00:38:52.356Z,1.70
2019-04-01T00:41:19.333Z,1.95
2019-04-01T00:44:00.244Z,1.50
2019-04-01T00:46:27.233Z,1.70
2019-04-01T00:48:54.013Z,1.40
2019-04-01T00:51:20.859Z,1.45
2019-04-01T00:53:47.720Z,1.30
2019-04-01T00:56:14.542Z,1.40
2019-04-01T00:58:41.363Z,1.70
2019-04-01T01:01:08.138Z,1.40
2019-04-01T01:03:34.928Z,1.32
2019-04-01T01:06:01.776Z,1.25
2019-04-01T01:08:28.563Z,1.60
2019-04-01T01:10:55.343Z,1.52
2019-04-01T01:13:22.267Z,1.45
2019-04-01T01:15:49.051Z,1.60
2019-04-01T01:18:15.838Z,1.57
2019-04-01T01:20:42.778Z,1.35
2019-04-01T01:23:09.581Z,1.52
2019-04-01T01:25:36.383Z,1.60
2019-04-01T01:28:03.497Z,1.40
2019-04-01T01:30:30.282Z,1.27
2019-04-01T01:32:57.083Z,1.40
2019-04-01T01:35:23.868Z,1.50
2019-04-01T01:37:51.388Z,1.40
2019-04-01T01:40:18.251Z,1.60
2019-04-01T01:42:45.227Z,1.12
2019-04-01T01:45:12.035Z,1.30
2019-04-01T01:47:38.815Z,1.10
2019-04-01T01:50:06.948Z,1.07
2019-04-01T01:52:33.724Z,1.55
2019-04-01T01:55:00.521Z,1.17
2019-04-01T01:57:27.444Z,1.17
2019-04-01T01:59:54.208Z,1.25
2019-04-01T02:02:21.000Z,0.95
2019-04-01T02:04:48.150Z,0.90
2019-04-01T02:07:14.934Z,1.22
2019-04-01T02:09:41.714Z,0.90
2019-04-01T02:12:08.548Z,0.80
2019-04-01T02:14:35.318Z,1.00
2019-04-01T02:17:02.119Z,1.10
2019-04-01T02:19:28.944Z,1.07
2019-04-01T02:21:55.756Z,1.37
2019-04-01T02:24:22.548Z,1.22
2019-04-01T02:26:49.339Z,1.35
2019-04-01T02:29:16.119Z,1.20
2019-04-01T02:31:43.212Z,1.57
2019-04-01T02:34:10.019Z,1.20
2019-04-01T02:36:36.793Z,1.10
2019-04-01T02:39:07.210Z,1.00
2019-04-01T02:41:34.193Z,1.45
2019-04-01T02:44:01.070Z,1.40
2019-04-01T02:46:27.866Z,1.05
2019-04-01T02:48:54.690Z,1.20
2019-04-01T02:51:21.458Z,1.30
2019-04-01T02:53:48.245Z,1.30
2019-04-01T02:56:15.048Z,1.02
2019-04-01T02:58:41.819Z,1.10
2019-04-01T03:01:08.704Z,0.98
2019-04-01T03:03:35.590Z,1.00
2019-04-01T03:06:02.395Z,1.07
2019-04-01T03:08:29.238Z,1.37
2019-04-01T03:10:56.084Z,1.00
2019-04-01T03:13:22.974Z,1.10
2019-04-01T03:15:49.748Z,1.20
2019-04-01T03:18:16.551Z,1.40
2019-04-01T03:20:43.328Z,1.30
2019-04-01T03:23:10.110Z,1.10
2019-04-01T03:25:37.427Z,1.30
2019-04-01T03:28:04.311Z,1.30
2019-04-01T03:30:31.125Z,1.37
2019-04-01T03:32:58.100Z,1.32
2019-04-01T03:35:24.874Z,1.60
2019-04-01T03:37:51.642Z,1.32
2019-04-01T03:40:18.759Z,1.45
2019-04-01T03:42:45.535Z,1.30
2019-04-01T03:45:14.519Z,1.55
2019-04-01T03:47:41.308Z,1.75
2019-04-01T03:50:08.114Z,1.62
2019-04-01T03:52:34.969Z,1.50
2019-04-01T03:55:01.769Z,1.47
2019-04-01T03:57:28.579Z,1.77
2019-04-01T03:59:55.360Z,2.40
2019-04-01T04:02:22.188Z,1.67
2019-04-01T04:04:49.490Z,1.90
2019-04-01T04:07:16.289Z,1.70
2019-04-01T04:09:43.392Z,2.17
2019-04-01T04:12:10.185Z,1.60
2019-04-01T04:14:36.971Z,1.40
2019-04-01T04:17:04.293Z,1.62
2019-04-01T04:19:31.058Z,1.98
2019-04-01T04:21:58.140Z,1.60
2019-04-01T04:24:25.290Z,1.75
2019-04-01T04:26:52.214Z,1.82
2019-04-01T04:29:19.042Z,1.92
2019-04-01T04:31:45.849Z,1.70
2019-04-01T04:34:12.628Z,2.08
2019-04-01T04:36:39.466Z,1.80
2019-04-01T04:39:06.276Z,1.80
2019-04-01T04:41:33.055Z,1.70
2019-04-01T04:44:00.054Z,1.45
2019-04-01T04:46:27.318Z,1.50
2019-04-01T04:48:54.142Z,1.82
2019-04-01T04:51:20.918Z,1.85
2019-04-01T04:53:48.056Z,2.37
2019-04-01T04:56:14.866Z,1.90
2019-04-01T04:58:41.640Z,2.30
2019-04-01T05:01:08.877Z,2.20
2019-04-01T05:03:35.669Z,2.02
2019-04-01T05:06:02.439Z,1.90
2019-04-01T05:08:29.345Z,1.95
2019-04-01T05:10:56.122Z,2.02
2019-04-01T05:13:22.912Z,2.10
2019-04-01T05:15:49.737Z,2.22
2019-04-01T05:18:16.519Z,1.85
2019-04-01T05:20:45.790Z,1.95
2019-04-01T05:23:12.569Z,2.10
2019-04-01T05:25:41.033Z,2.20
2019-04-01T05:28:10.419Z,2.00
2019-04-01T05:30:37.404Z,2.42
2019-04-01T05:33:04.476Z,2.15
2019-04-01T05:35:34.801Z,2.30
2019-04-01T05:38:03.310Z,2.05
2019-04-01T05:40:30.284Z,2.47
2019-04-01T05:42:57.549Z,2.27
2019-04-01T05:45:24.390Z,2.60
2019-04-01T05:47:53.670Z,2.37
2019-04-01T05:50:20.443Z,2.47
2019-04-01T05:52:48.646Z,3.10
2019-04-01T05:55:15.440Z,2.47
2019-04-01T05:57:42.220Z,2.30
2019-04-01T06:00:11.607Z,2.47
2019-04-01T06:02:38.384Z,2.10
2019-04-01T06:05:06.459Z,3.08
2019-04-01T06:07:34.203Z,2.60
2019-04-01T06:10:01.010Z,3.37
2019-04-01T06:12:28.403Z,3.42
2019-04-01T06:14:56.313Z,4.15
2019-04-01T06:17:23.389Z,3.87
2019-04-01T06:19:50.477Z,3.42
2019-04-01T06:22:17.312Z,3.52
2019-04-01T06:24:44.084Z,2.72
2019-04-01T06:27:11.178Z,3.20
2019-04-01T06:29:38.553Z,4.00
2019-04-01T06:32:05.419Z,5.22
2019-04-01T06:34:32.177Z,4.05
2019-04-01T06:36:58.961Z,5.40
2019-04-01T06:39:25.940Z,4.30
2019-04-01T06:41:53.081Z,3.98
2019-04-01T06:44:20.233Z,3.55
2019-04-01T06:46:47.049Z,3.22
2019-04-01T06:49:13.871Z,3.55
2019-04-01T06:51:40.693Z,2.65
2019-04-01T06:54:07.465Z,3.30
2019-04-01T06:56:34.234Z,3.08
2019-04-01T06:59:01.317Z,3.37
2019-04-01T07:01:28.099Z,2.67
2019-04-01T07:03:54.881Z,3.20
2019-04-01T07:06:21.681Z,2.90
2019-04-01T07:08:48.872Z,2.87
2019-04-01T07:11:16.334Z,2.62
2019-04-01T07:13:43.451Z,2.30
2019-04-01T07:16:15.701Z,2.27
2019-04-01T07:18:39.348Z,2.55
2019-04-01T07:21:06.471Z,2.50
2019-04-01T07:23:33.854Z,2.70
2019-04-01T07:26:01.001Z,2.00
2019-04-01T07:28:27.803Z,2.33
2019-04-01T07:30:54.598Z,2.20
2019-04-01T07:33:21.430Z,2.02
2019-04-01T07:35:48.699Z,1.77
2019-04-01T07:38:15.470Z,2.00
2019-04-01T07:40:42.248Z,1.47
2019-04-01T07:43:09.091Z,1.90
2019-04-01T07:45:35.909Z,1.65
2019-04-01T07:48:02.680Z,1.95
2019-04-01T07:50:29.502Z,1.92
2019-04-01T07:52:56.332Z,1.45
2019-04-01T07:55:23.107Z,1.47
2019-04-01T07:57:49.852Z,1.60
2019-04-01T08:00:17.485Z,1.57
2019-04-01T08:02:44.437Z,1.40
2019-04-01T08:05:11.549Z,1.37
2019-04-01T08:07:38.332Z,1.40
2019-04-01T08:10:06.629Z,1.32
2019-04-01T08:12:33.529Z,1.40
2019-04-01T08:15:00.411Z,0.80
2019-04-01T08:17:27.309Z,1.20
2019-04-01T08:19:54.355Z,1.15
2019-04-01T08:22:21.486Z,1.07
2019-04-01T08:24:48.666Z,1.22
2019-04-01T08:27:15.458Z,0.90
2019-04-01T08:29:42.233Z,1.40
2019-04-01T08:32:09.026Z,1.52
2019-04-01T08:34:35.859Z,1.82
2019-04-01T08:37:03.064Z,1.90
2019-04-01T08:39:30.813Z,1.50
2019-04-01T08:41:58.741Z,1.32
2019-04-01T08:44:25.515Z,1.20
2019-04-01T08:46:52.317Z,1.37
2019-04-01T08:49:19.118Z,1.62
2019-04-01T08:51:45.934Z,1.62
2019-04-01T08:54:12.720Z,1.40
2019-04-01T08:56:39.602Z,1.12
2019-04-01T08:59:06.381Z,1.40
2019-04-01T09:01:35.420Z,1.70
2019-04-01T09:04:02.036Z,1.40
2019-04-01T09:06:31.280Z,1.45
2019-04-01T09:08:59.748Z,1.32
2019-04-01T09:11:27.478Z,1.25
2019-04-01T09:13:54.684Z,1.75
2019-04-01T09:16:22.082Z,1.85
2019-04-01T09:18:49.145Z,1.70
2019-04-01T09:21:15.917Z,1.77
2019-04-01T09:23:42.717Z,1.35
2019-04-01T09:26:09.711Z,1.45
2019-04-01T09:28:36.485Z,1.60
2019-04-01T09:31:03.357Z,1.90
2019-04-01T09:33:30.177Z,1.40
2019-04-01T09:35:56.968Z,1.10
2019-04-01T09:38:23.729Z,1.40
2019-04-01T09:40:50.836Z,1.20
2019-04-01T09:43:17.663Z,1.30
2019-04-01T09:45:44.451Z,1.12
2019-04-01T09:48:11.263Z,1.22
2019-04-01T09:50:38.036Z,1.20
2019-04-01T09:53:05.023Z,1.17
2019-04-01T09:55:31.807Z,0.90
2019-04-01T09:57:58.580Z,1.12
2019-04-01T10:00:25.368Z,1.32
2019-04-01T10:02:52.329Z,1.02
2019-04-01T10:05:19.088Z,0.80
2019-04-01T10:07:46.016Z,0.85
2019-04-01T10:10:13.185Z,1.15
2019-04-01T10:12:40.005Z,0.95
2019-04-01T10:15:07.185Z,1.40
2019-04-01T10:17:33.997Z,1.30
2019-04-01T10:20:01.437Z,1.47
2019-04-01T10:22:28.921Z,1.42
2019-04-01T10:24:55.714Z,1.37
2019-04-01T10:27:22.551Z,1.50
2019-04-01T10:29:49.387Z,1.40
2019-04-01T10:32:16.436Z,1.32
2019-04-01T10:34:43.362Z,1.25
2019-04-01T10:37:10.187Z,1.72
2019-04-01T10:39:37.265Z,1.42
2019-04-01T10:42:04.147Z,1.40
2019-04-01T10:44:30.927Z,1.45
2019-04-01T10:46:57.763Z,1.50
2019-04-01T10:49:24.637Z,1.30
2019-04-01T10:51:51.400Z,1.10
2019-04-01T10:54:18.265Z,1.20
2019-04-01T10:56:45.349Z,1.35
2019-04-01T10:59:12.205Z,3.70
2019-04-01T11:01:39.028Z,1.92
2019-04-01T11:04:05.801Z,1.80
2019-04-01T11:06:32.645Z,2.33
2019-04-01T11:08:59.555Z,1.70
2019-04-01T11:11:27.153Z,1.70
2019-04-01T11:13:54.413Z,1.50
2019-04-01T11:16:21.625Z,1.80
2019-04-01T11:18:48.416Z,1.62
2019-04-01T11:21:15.188Z,1.50
2019-04-01T11:23:42.027Z,1.20
2019-04-01T11:26:08.938Z,1.40
2019-04-01T11:28:35.703Z,1.35
2019-04-01T11:31:02.524Z,1.10
2019-04-01T11:33:29.338Z,1.10
2019-04-01T11:35:56.327Z,1.05
2019-04-01T11:38:23.272Z,1.20
2019-04-01T11:40:50.397Z,1.12
2019-04-01T11:43:17.871Z,1.15
2019-04-01T11:45:45.189Z,1.22
2019-04-01T11:48:12.051Z,1.10
2019-04-01T11:50:38.840Z,1.35
2019-04-01T11:53:06.949Z,1.20
2019-04-01T11:55:34.133Z,1.20
2019-04-01T11:58:00.903Z,1.00
2019-04-01T12:00:27.922Z,1.30
2019-04-01T12:02:54.708Z,0.90
2019-04-01T12:05:21.890Z,1.00
2019-04-01T12:07:49.303Z,1.10
2019-04-01T12:10:16.091Z,1.35
2019-04-01T12:12:42.999Z,1.02
2019-04-01T12:15:12.391Z,0.93
2019-04-01T12:17:41.587Z,0.93
2019-04-01T12:20:09.451Z,0.62
2019-04-01T12:22:36.503Z,1.15
2019-04-01T12:25:06.094Z,1.10
2019-04-01T12:27:32.910Z,1.40
2019-04-01T12:29:59.939Z,1.37
2019-04-01T12:32:26.746Z,1.42
2019-04-01T12:34:53.527Z,1.15
2019-04-01T12:37:20.661Z,1.45
2019-04-01T12:39:47.537Z,1.50
2019-04-01T12:42:14.345Z,1.90
2019-04-01T12:44:41.595Z,1.40
2019-04-01T12:47:08.806Z,1.80
2019-04-01T12:49:35.884Z,1.98
2019-04-01T12:52:02.791Z,1.55
2019-04-01T12:54:29.601Z,1.80
2019-04-01T12:56:56.400Z,1.92
2019-04-01T12:59:23.616Z,1.92
2019-04-01T13:01:51.449Z,1.70
2019-04-01T13:04:18.234Z,2.00
2019-04-01T13:06:45.150Z,2.20
2019-04-01T13:09:11.933Z,2.30
2019-04-01T13:11:38.721Z,2.33
2019-04-01T13:14:05.506Z,1.65
2019-04-01T13:16:32.289Z,1.90
2019-04-01T13:18:59.064Z,1.70
2019-04-01T13:21:26.232Z,2.00
2019-04-01T13:23:53.128Z,1.57
2019-04-01T13:26:19.923Z,1.82
2019-04-01T13:28:46.721Z,1.70
2019-04-01T13:31:13.497Z,1.57
2019-04-01T13:33:40.321Z,1.80
2019-04-01T13:36:07.998Z,1.60
2019-04-01T13:38:34.977Z,1.45
2019-04-01T13:41:01.989Z,1.50
2019-04-01T13:43:28.985Z,1.10
2019-04-01T13:45:55.997Z,1.60
2019-04-01T13:48:22.776Z,1.52
2019-04-01T13:50:49.860Z,1.20
2019-04-01T13:53:16.768Z,1.22
2019-04-01T13:55:43.552Z,1.20
2019-04-01T13:58:10.938Z,1.35
2019-04-01T14:00:38.056Z,0.85
2019-04-01T14:03:04.850Z,0.85
2019-04-01T14:05:31.800Z,1.00
2019-04-01T14:07:58.591Z,1.32
2019-04-01T14:10:25.371Z,0.88
2019-04-01T14:12:52.335Z,1.10
2019-04-01T14:15:19.105Z,1.20
2019-04-01T14:17:45.905Z,1.25
2019-04-01T14:20:12.787Z,1.10
2019-04-01T14:22:39.583Z,1.37
2019-04-01T14:25:07.539Z,1.07
2019-04-01T14:27:34.348Z,1.25
2019-04-01T14:30:01.146Z,1.47
2019-04-01T14:32:27.837Z,0.90
2019-04-01T14:34:54.831Z,0.85
2019-04-01T14:37:25.981Z,0.78
2019-04-01T14:39:50.292Z,1.20
2019-04-01T14:42:17.490Z,1.10
2019-04-01T14:44:58.584Z,0.78
2019-04-01T14:47:26.212Z,1.00
2019-04-01T14:49:52.986Z,0.80
2019-04-01T14:52:31.754Z,1.22
2019-04-01T14:54:48.720Z,1.10
2019-04-01T14:57:15.512Z,1.00
2019-04-01T14:59:42.300Z,0.75
2019-04-01T15:02:09.733Z,0.62
2019-04-01T15:04:36.526Z,1.62
2019-04-01T15:07:03.407Z,1.02
2019-04-01T15:09:30.519Z,0.93
2019-04-01T15:11:57.427Z,0.90
2019-04-01T15:14:24.263Z,1.00
2019-04-01T15:16:51.512Z,0.65
2019-04-01T15:19:18.295Z,0.70
2019-04-01T15:21:47.377Z,0.85
2019-04-01T15:24:13.846Z,1.12
2019-04-01T15:26:40.639Z,0.72
2019-04-01T15:29:07.462Z,1.30
2019-04-01T15:31:34.592Z,0.80
2019-04-01T15:34:01.390Z,0.75
2019-04-01T15:36:28.157Z,0.98
2019-04-01T15:38:54.995Z,1.12
2019-04-01T15:41:21.798Z,1.80
2019-04-01T15:43:48.602Z,1.22
2019-04-01T15:46:15.676Z,4.97
2019-04-01T15:48:42.460Z,3.95
2019-04-01T15:51:09.230Z,1.70
2019-04-01T15:53:36.144Z,1.07
2019-04-01T15:56:02.982Z,2.50
2019-04-01T15:58:29.759Z,1.62
2019-04-01T16:00:56.568Z,0.90
2019-04-01T16:03:23.377Z,1.00
2019-04-01T16:05:50.163Z,1.05
2019-04-01T16:08:17.196Z,0.93
2019-04-01T16:10:43.982Z,1.05
2019-04-01T16:13:10.785Z,1.00
2019-04-01T16:15:38.486Z,0.90
2019-04-01T16:18:05.648Z,0.65
2019-04-01T16:20:34.321Z,0.98
2019-04-01T16:23:01.271Z,0.90
2019-04-01T16:25:28.066Z,3.40
2019-04-01T16:27:54.856Z,1.00
2019-04-01T16:30:22.080Z,1.00
2019-04-01T16:32:48.975Z,1.77
2019-04-01T16:35:15.765Z,1.77
2019-04-01T16:37:42.661Z,2.00
2019-04-01T16:40:10.685Z,1.82
2019-04-01T16:42:37.696Z,2.00
2019-04-01T16:45:07.287Z,2.10
2019-04-01T16:47:34.751Z,2.30
2019-04-01T16:50:02.486Z,2.55
2019-04-01T16:52:29.774Z,2.12
2019-04-01T16:55:00.432Z,2.75
2019-04-01T16:57:27.218Z,2.40
2019-04-01T16:59:54.255Z,2.40
2019-04-01T17:02:21.533Z,1.77
2019-04-01T17:04:48.853Z,2.12
2019-04-01T17:07:19.339Z,1.80
2019-04-01T17:09:44.713Z,1.45
2019-04-01T17:12:11.701Z,1.87
2019-04-01T17:14:38.660Z,2.72
2019-04-01T17:17:05.533Z,3.15
2019-04-01T17:19:32.314Z,5.42
2019-04-01T17:21:59.132Z,5.97
2019-04-01T17:24:26.014Z,7.30
2019-04-01T17:27:12.426Z,3.50
2019-04-01T17:29:41.930Z,2.72
2019-04-01T17:32:08.739Z,3.30
2019-04-01T17:34:35.546Z,7.67
2019-04-01T17:37:02.311Z,15.13
2019-04-01T17:39:29.108Z,12.70
2019-04-01T17:41:55.957Z,5.87
2019-04-01T17:44:22.772Z,6.42
2019-04-01T17:46:49.727Z,4.97
2019-04-01T17:49:16.591Z,2.92
2019-04-01T17:51:43.416Z,3.00
2019-04-01T17:54:10.211Z,4.30
2019-04-01T17:56:37.109Z,3.12
2019-04-01T17:59:04.287Z,2.55
2019-04-01T18:01:31.064Z,2.80
2019-04-01T18:03:58.008Z,2.62
2019-04-01T18:06:24.773Z,1.70
2019-04-01T18:08:51.552Z,1.55
2019-04-01T18:11:18.402Z,2.12
2019-04-01T18:13:45.289Z,1.85
2019-04-01T18:16:12.065Z,2.20
2019-04-01T18:18:39.419Z,2.08
2019-04-01T18:21:06.369Z,1.98
2019-04-01T18:23:33.164Z,2.00
2019-04-01T18:26:00.118Z,3.27
2019-04-01T18:28:26.893Z,3.35
2019-04-01T18:30:53.722Z,1.87
2019-04-01T18:33:20.852Z,2.30
2019-04-01T18:35:47.721Z,2.12
2019-04-01T18:38:14.531Z,1.87
2019-04-01T18:40:41.341Z,2.55
2019-04-01T18:43:08.115Z,2.02
2019-04-01T18:45:34.919Z,2.30
2019-04-01T18:48:01.722Z,2.30
2019-04-01T18:50:29.122Z,1.92
2019-04-01T18:52:55.897Z,1.75
2019-04-01T18:55:22.823Z,1.92
2019-04-01T18:57:49.937Z,3.40
2019-04-01T19:00:18.281Z,2.30
2019-04-01T19:02:45.692Z,1.70
2019-04-01T19:05:12.989Z,1.20
2019-04-01T19:07:39.795Z,1.55
2019-04-01T19:10:07.081Z,1.80
2019-04-01T19:12:33.887Z,1.87
2019-04-01T19:15:02.553Z,4.62
2019-04-01T19:17:29.389Z,3.08
2019-04-01T19:19:56.239Z,2.22
2019-04-01T19:22:23.322Z,1.82
2019-04-01T19:24:50.126Z,1.80
2019-04-01T19:27:16.922Z,1.67
2019-04-01T19:29:45.410Z,2.00
2019-04-01T19:32:14.742Z,4.17
2019-04-01T19:34:41.091Z,4.00
2019-04-01T19:37:09.914Z,2.02
2019-04-01T19:39:37.245Z,1.37
2019-04-01T19:42:04.019Z,1.50
2019-04-01T19:44:30.902Z,2.42
2019-04-01T19:46:57.732Z,2.22
2019-04-01T19:49:24.513Z,2.52
2019-04-01T19:51:51.338Z,1.98
2019-04-01T19:54:28.036Z,2.42
2019-04-01T19:56:47.111Z,2.33
2019-04-01T19:59:13.897Z,2.33
2019-04-01T20:01:41.029Z,2.33
2019-04-01T20:04:07.720Z,2.40
2019-04-01T20:06:34.545Z,2.72
2019-04-01T20:09:01.430Z,2.52
2019-04-01T20:11:28.209Z,2.12
2019-04-01T20:13:55.165Z,2.30
2019-04-01T20:16:22.008Z,2.40
2019-04-01T20:18:48.829Z,2.55
2019-04-01T20:21:15.624Z,2.25
2019-04-01T20:23:42.659Z,2.37
2019-04-01T20:26:09.425Z,2.30
2019-04-01T20:28:36.277Z,2.27
2019-04-01T20:31:03.568Z,2.55
2019-04-01T20:33:31.823Z,3.30
2019-04-01T20:35:58.866Z,2.72
2019-04-01T20:38:27.145Z,2.50
2019-04-01T20:40:54.413Z,4.50
2019-04-01T20:43:21.491Z,2.42
2019-04-01T20:45:48.282Z,2.40
2019-04-01T20:48:15.081Z,2.33
2019-04-01T20:50:41.858Z,2.12
2019-04-01T20:53:08.677Z,2.42
2019-04-01T20:55:47.679Z,2.35
2019-04-01T20:58:04.599Z,1.75
2019-04-01T21:00:31.654Z,2.42
2019-04-01T21:02:58.495Z,2.30
2019-04-01T21:05:25.296Z,2.30
2019-04-01T21:07:52.085Z,2.52
2019-04-01T21:10:18.845Z,2.55
2019-04-01T21:12:45.643Z,2.65
2019-04-01T21:15:13.467Z,5.37
2019-04-01T21:17:40.299Z,2.80
2019-04-01T21:20:07.680Z,6.15
2019-04-01T21:22:34.573Z,3.22
2019-04-01T21:25:02.284Z,2.12
2019-04-01T21:27:29.363Z,2.98
2019-04-01T21:29:56.269Z,2.67
2019-04-01T21:32:23.346Z,2.70
2019-04-01T21:34:50.122Z,2.90
2019-04-01T21:37:17.024Z,2.90
2019-04-01T21:39:43.905Z,2.80
2019-04-01T21:42:10.704Z,2.77
2019-04-01T21:44:37.544Z,2.80
2019-04-01T21:47:04.338Z,3.20
2019-04-01T21:49:31.241Z,2.92
2019-04-01T21:51:58.071Z,3.02
2019-04-01T21:54:24.855Z,2.83
2019-04-01T21:56:52.110Z,3.33
2019-04-01T21:59:19.501Z,2.70
2019-04-01T22:01:46.715Z,7.20
2019-04-01T22:04:13.717Z,3.95
2019-04-01T22:06:41.118Z,2.95
2019-04-01T22:09:09.541Z,3.05
2019-04-01T22:11:36.379Z,2.77
2019-04-01T22:14:03.363Z,2.35
2019-04-01T22:16:30.157Z,7.72
2019-04-01T22:18:56.968Z,2.80
2019-04-01T22:21:23.814Z,3.17
2019-04-01T22:23:50.598Z,4.55
2019-04-01T22:26:17.698Z,3.08
2019-04-01T22:28:44.632Z,3.12
2019-04-01T22:31:11.412Z,3.40
2019-04-01T22:33:38.210Z,2.80
2019-04-01T22:36:05.038Z,2.85
2019-04-01T22:38:31.836Z,2.90
2019-04-01T22:41:00.088Z,3.27
2019-04-01T22:43:27.618Z,2.90
2019-04-01T22:45:54.387Z,2.90
2019-04-01T22:48:21.167Z,2.42
2019-04-01T22:50:48.052Z,2.80
2019-04-01T22:53:14.839Z,8.93
2019-04-01T22:55:41.625Z,2.40
2019-04-01T22:58:08.457Z,2.80
2019-04-01T23:00:35.247Z,1.80
2019-04-01T23:03:02.095Z,3.33
2019-04-01T23:05:28.934Z,2.15
2019-04-01T23:07:55.697Z,2.10
2019-04-01T23:10:22.776Z,1.70
2019-04-01T23:12:50.946Z,2.00
2019-04-01T23:15:18.703Z,2.35
2019-04-01T23:17:45.477Z,3.10
2019-04-01T23:20:12.697Z,6.87
2019-04-01T23:22:39.479Z,2.15
2019-04-01T23:25:06.947Z,1.87
2019-04-01T23:27:33.774Z,2.92
2019-04-01T23:30:00.821Z,5.28
2019-04-01T23:32:27.629Z,1.92
2019-04-01T23:34:54.449Z,1.90
2019-04-01T23:37:21.219Z,2.47
2019-04-01T23:39:48.001Z,2.58
2019-04-01T23:42:14.835Z,2.27
2019-04-01T23:44:41.603Z,2.80
2019-04-01T23:47:08.407Z,2.60
2019-04-01T23:49:35.526Z,4.58
2019-04-01T23:52:02.331Z,2.60
2019-04-01T23:54:31.029Z,1.98
2019-04-01T23:56:58.091Z,2.37
2019-04-01T23:59:24.862Z,1.77
